createdAt,value
2022-12-24T00:04:39.100Z,11.38
2022-12-24T00:09:43.277Z,13.35
2022-12-24T00:14:46.178Z,12.57
2022-12-24T00:19:48.989Z,11.75
2022-12-24T00:24:53.433Z,10.95
2022-12-24T00:29:56.243Z,11.70
2022-12-24T00:34:59.172Z,12.07
2022-12-24T00:40:03.505Z,11.45
2022-12-24T00:45:07.156Z,12.02
2022-12-24T00:50:10.750Z,12.43
2022-12-24T00:55:14.936Z,11.95
2022-12-24T01:00:18.154Z,11.48
2022-12-24T01:05:23.070Z,11.45
2022-12-24T01:10:27.247Z,10.85
2022-12-24T01:15:30.814Z,10.80
2022-12-24T01:20:33.731Z,10.88
2022-12-24T01:25:38.820Z,10.82
2022-12-24T01:30:42.295Z,11.48
2022-12-24T01:35:45.406Z,11.48
2022-12-24T01:41:06.936Z,11.48
2022-12-24T01:46:17.478Z,11.20
2022-12-24T01:51:28.581Z,12.90
2022-12-24T01:56:34.175Z,11.70
2022-12-24T02:01:37.914Z,10.35
2022-12-24T02:06:40.735Z,11.57
2022-12-24T02:11:45.156Z,11.48
2022-12-24T02:16:54.966Z,11.95
2022-12-24T02:22:03.697Z,11.48
2022-12-24T02:27:18.281Z,12.60
2022-12-24T02:32:25.967Z,11.48
2022-12-24T02:37:33.758Z,11.63
2022-12-24T02:42:40.376Z,11.43
2022-12-24T02:47:46.467Z,9.85
2022-12-24T02:52:50.309Z,10.43
2022-12-24T02:58:11.632Z,11.48
2022-12-24T03:03:31.208Z,9.75
2022-12-24T03:08:44.897Z,11.15
2022-12-24T03:13:50.109Z,9.63
2022-12-24T03:19:01.851Z,11.32
2022-12-24T03:24:05.118Z,11.20
2022-12-24T03:29:09.031Z,10.63
2022-12-24T03:34:14.533Z,10.02
2022-12-24T03:39:17.539Z,9.25
2022-12-24T03:44:20.335Z,10.32
2022-12-24T03:49:24.431Z,9.63
2022-12-24T03:54:27.238Z,10.00
2022-12-24T03:59:29.927Z,10.13
2022-12-24T04:04:36.803Z,9.32
2022-12-24T04:09:40.577Z,9.13
2022-12-24T04:14:43.327Z,8.80
2022-12-24T04:19:47.385Z,9.65
2022-12-24T04:24:50.188Z,8.60
2022-12-24T04:29:52.964Z,8.32
2022-12-24T04:34:57.096Z,8.48
2022-12-24T04:39:59.847Z,7.97
2022-12-24T04:45:02.628Z,7.72
2022-12-24T04:50:08.071Z,7.57
2022-12-24T04:55:11.485Z,7.15
2022-12-24T05:00:15.202Z,7.13
2022-12-24T05:05:19.347Z,6.60
2022-12-24T05:10:22.145Z,6.53
2022-12-24T05:15:25.331Z,7.40
2022-12-24T05:20:29.508Z,7.25
2022-12-24T05:25:55.195Z,7.20
2022-12-24T05:30:59.097Z,7.68
2022-12-24T05:36:03.418Z,7.82
2022-12-24T05:41:06.539Z,6.60
2022-12-24T05:46:12.826Z,6.70
2022-12-24T05:51:19.546Z,7.00
2022-12-24T05:56:24.063Z,6.22
2022-12-24T06:01:27.563Z,6.30
2022-12-24T06:06:31.795Z,7.20
2022-12-24T06:11:34.832Z,7.30
2022-12-24T06:16:38.217Z,7.28
2022-12-24T06:21:42.564Z,7.22
2022-12-24T06:26:45.448Z,7.03
2022-12-24T06:31:48.344Z,7.57
2022-12-24T06:36:52.530Z,7.65
2022-12-24T06:41:55.305Z,6.63
2022-12-24T06:46:58.498Z,6.93
2022-12-24T06:52:02.822Z,6.78
2022-12-24T06:57:06.881Z,6.47
2022-12-24T07:02:10.606Z,7.03
2022-12-24T07:07:15.273Z,6.60
2022-12-24T07:12:18.108Z,6.25
2022-12-24T07:17:20.911Z,6.47
2022-12-24T07:22:25.396Z,6.07
2022-12-24T07:27:28.237Z,5.78
2022-12-24T07:32:31.731Z,5.70
2022-12-24T07:37:38.120Z,5.97
2022-12-24T07:42:40.856Z,5.78
2022-12-24T07:47:43.600Z,6.35
2022-12-24T07:52:47.768Z,6.20
2022-12-24T07:57:50.515Z,6.25
2022-12-24T08:02:53.508Z,5.88
2022-12-24T08:07:58.657Z,5.95
2022-12-24T08:13:01.551Z,5.50
2022-12-24T08:18:04.884Z,6.32
2022-12-24T08:23:10.322Z,5.90
2022-12-24T08:28:14.576Z,5.13
2022-12-24T08:33:17.698Z,5.43
2022-12-24T08:38:22.295Z,4.93
2022-12-24T08:43:26.990Z,5.07
2022-12-24T08:48:29.779Z,4.85
2022-12-24T08:53:34.057Z,5.28
2022-12-24T08:58:37.344Z,6.13
2022-12-24T09:03:40.517Z,5.10
2022-12-24T09:08:44.851Z,5.45
2022-12-24T09:13:48.147Z,5.50
2022-12-24T09:18:50.974Z,5.68
2022-12-24T09:23:55.238Z,6.10
2022-12-24T09:28:59.122Z,5.65
2022-12-24T09:34:01.976Z,6.28
2022-12-24T09:39:06.571Z,5.47
2022-12-24T09:44:21.418Z,5.90
2022-12-24T09:49:32.367Z,6.53
2022-12-24T09:54:45.912Z,5.80
2022-12-24T09:59:52.991Z,5.25
2022-12-24T10:04:56.099Z,5.50
2022-12-24T10:10:07.653Z,6.22
2022-12-24T10:15:21.744Z,4.78
2022-12-24T10:20:35.851Z,4.78
2022-12-24T10:25:49.050Z,4.80
2022-12-24T10:30:59.222Z,5.43
2022-12-24T10:36:06.755Z,4.93
2022-12-24T10:41:15.566Z,5.95
2022-12-24T10:46:22.282Z,5.03
2022-12-24T10:51:34.666Z,5.53
2022-12-24T10:56:44.671Z,6.68
2022-12-24T11:01:50.937Z,6.70
2022-12-24T11:06:56.492Z,6.10
2022-12-24T11:12:08.688Z,6.45
2022-12-24T11:17:21.850Z,6.78
2022-12-24T11:22:27.521Z,6.68
2022-12-24T11:27:41.715Z,5.93
2022-12-24T11:32:47.295Z,6.70
2022-12-24T11:37:50.544Z,6.20
2022-12-24T11:43:01.391Z,5.78
2022-12-24T11:48:23.867Z,6.38
2022-12-24T11:53:32.441Z,6.53
2022-12-24T12:03:44.926Z,6.60
2022-12-24T12:08:48.791Z,7.07
2022-12-24T12:13:54.612Z,7.45
2022-12-24T12:19:03.281Z,7.78
2022-12-24T12:24:13.124Z,7.30
2022-12-24T12:29:29.900Z,7.75
2022-12-24T12:34:35.495Z,7.75
2022-12-24T12:39:38.763Z,8.30
2022-12-24T12:45:02.453Z,7.38
2022-12-24T12:50:13.733Z,8.73
2022-12-24T12:55:29.914Z,8.15
2022-12-24T13:00:39.673Z,8.20
2022-12-24T13:06:02.128Z,7.78
2022-12-24T13:11:24.901Z,8.98
2022-12-24T13:16:47.661Z,8.43
2022-12-24T13:21:52.742Z,8.60
2022-12-24T13:27:04.907Z,8.95
2022-12-24T13:32:56.356Z,8.25
2022-12-24T13:44:03.500Z,7.85
2022-12-24T13:49:13.240Z,7.93
2022-12-24T13:54:20.774Z,7.43
2022-12-24T13:59:38.708Z,6.63
2022-12-24T14:04:42.589Z,7.43
2022-12-24T14:09:50.384Z,6.95
2022-12-24T14:14:54.713Z,6.97
2022-12-24T14:20:00.256Z,6.38
2022-12-24T14:25:08.098Z,6.53
2022-12-24T14:30:20.209Z,6.03
2022-12-24T14:35:26.402Z,6.57
2022-12-24T14:40:31.676Z,6.10
2022-12-24T14:45:43.051Z,5.57
2022-12-24T14:51:06.083Z,7.18
2022-12-24T14:56:16.359Z,7.53
2022-12-24T15:01:26.443Z,7.97
2022-12-24T15:06:32.793Z,7.38
2022-12-24T15:11:35.681Z,7.70
2022-12-24T15:16:40.756Z,8.45
2022-12-24T15:21:44.113Z,10.25
2022-12-24T15:26:47.026Z,9.18
2022-12-24T15:31:56.464Z,9.00
2022-12-24T15:37:05.778Z,7.68
2022-12-24T15:42:17.950Z,10.60
2022-12-24T15:47:27.456Z,8.27
2022-12-24T15:52:30.780Z,6.95
2022-12-24T15:57:35.203Z,7.07
2022-12-24T16:02:41.760Z,6.13
2022-12-24T16:08:23.180Z,7.10
2022-12-24T16:14:25.300Z,6.20
2022-12-24T16:26:28.700Z,6.93
2022-12-24T16:31:34.685Z,6.80
2022-12-24T16:36:37.499Z,7.80
2022-12-24T16:41:55.491Z,8.10
2022-12-24T16:47:00.670Z,8.40
2022-12-24T16:52:03.485Z,7.47
2022-12-24T16:57:07.658Z,8.02
2022-12-24T17:02:14.968Z,7.13
2022-12-24T17:07:20.098Z,8.17
2022-12-24T17:12:24.237Z,7.53
2022-12-24T17:17:29.745Z,7.93
2022-12-24T17:22:33.215Z,6.70
2022-12-24T17:33:18.536Z,7.82
2022-12-24T17:38:21.311Z,6.85
2022-12-24T17:43:25.464Z,6.68
2022-12-24T17:48:28.176Z,6.65
2022-12-24T17:53:31.009Z,7.32
2022-12-24T17:58:35.405Z,6.60
2022-12-24T18:03:38.300Z,6.45
2022-12-24T18:08:43.319Z,7.50
2022-12-24T18:13:49.475Z,9.55
2022-12-24T18:18:53.442Z,6.18
2022-12-24T18:23:57.458Z,6.07
2022-12-24T18:29:04.527Z,7.05
2022-12-24T18:34:10.451Z,5.70
2022-12-24T18:39:13.372Z,5.35
2022-12-24T18:44:24.314Z,6.00
2022-12-24T18:49:28.296Z,7.60
2022-12-24T18:54:31.265Z,5.68
2022-12-24T18:59:39.027Z,4.80
2022-12-24T19:04:41.980Z,5.03
2022-12-24T19:09:48.278Z,4.88
2022-12-24T19:14:53.111Z,4.18
2022-12-24T19:19:56.043Z,4.70
2022-12-24T19:24:59.261Z,4.20
2022-12-24T19:30:03.513Z,4.53
2022-12-24T19:35:09.162Z,4.60
2022-12-24T19:40:16.018Z,4.90
2022-12-24T19:46:00.184Z,4.50
2022-12-24T19:51:03.412Z,4.82
2022-12-24T19:56:08.605Z,5.15
2022-12-24T20:01:15.858Z,4.75
2022-12-24T20:06:21.229Z,6.37
2022-12-24T20:11:25.773Z,5.78
2022-12-24T20:16:30.626Z,5.60
2022-12-24T20:21:33.819Z,4.88
2022-12-24T20:26:37.560Z,5.43
2022-12-24T20:31:42.410Z,5.55
2022-12-24T20:36:45.310Z,6.32
2022-12-24T20:41:48.079Z,5.90
2022-12-24T20:46:53.292Z,6.43
2022-12-24T20:51:56.147Z,6.60
2022-12-24T20:57:01.107Z,7.20
2022-12-24T21:02:05.431Z,6.78
2022-12-24T21:07:08.412Z,5.68
2022-12-24T21:12:29.623Z,5.53
2022-12-24T21:17:33.822Z,6.10
2022-12-24T21:22:36.588Z,5.68
2022-12-24T21:27:46.929Z,6.20
2022-12-24T21:33:04.906Z,5.88
2022-12-24T21:38:08.597Z,5.35
2022-12-24T21:43:14.372Z,6.70
2022-12-24T21:48:34.486Z,6.55
2022-12-24T21:53:56.008Z,6.10
2022-12-24T21:59:01.659Z,6.75
2022-12-24T22:04:05.992Z,6.95
2022-12-24T22:09:29.524Z,6.70
2022-12-24T22:14:33.156Z,7.00
2022-12-24T22:19:42.045Z,7.05
2022-12-24T22:24:48.089Z,6.97
2022-12-24T22:29:55.598Z,6.50
2022-12-24T22:35:04.781Z,6.47
2022-12-24T22:40:12.540Z,6.55
2022-12-24T22:45:22.751Z,7.35
2022-12-24T22:50:32.831Z,7.18
2022-12-24T22:55:35.651Z,7.70
2022-12-24T23:00:44.035Z,7.32
2022-12-24T23:05:50.661Z,7.38
2022-12-24T23:10:54.487Z,7.68
2022-12-24T23:16:02.145Z,7.03
2022-12-24T23:21:11.997Z,8.63
2022-12-24T23:26:18.251Z,8.15
2022-12-24T23:31:22.811Z,6.65
2022-12-24T23:36:32.140Z,7.00
2022-12-24T23:41:35.002Z,6.70
2022-12-24T23:46:37.845Z,6.60
2022-12-24T23:51:42.056Z,7.20
2022-12-24T23:56:45.087Z,6.68
